sensor_id;sensor_type;location;lat;lon;timestamp;P1;durP1;ratioP1;P2;durP2;ratioP2
38865;SDS011;62686;48.984;8.394;2023-07-20T00:07:19;1.90;;;1.20;;
38865;SDS011;62686;48.984;8.394;2023-07-20T00:09:56;2.42;;;1.63;;
38865;SDS011;62686;48.984;8.394;2023-07-20T00:12:30;2.60;;;1.73;;
38865;SDS011;62686;48.984;8.394;2023-07-20T00:17:54;2.95;;;1.77;;
38865;SDS011;62686;48.984;8.394;2023-07-20T00:20:33;4.53;;;1.83;;
38865;SDS011;62686;48.984;8.394;2023-07-20T00:23:28;2.15;;;1.60;;
38865;SDS011;62686;48.984;8.394;2023-07-20T00:25:56;2.22;;;1.70;;
38865;SDS011;62686;48.984;8.394;2023-07-20T00:28:48;3.30;;;1.83;;
38865;SDS011;62686;48.984;8.394;2023-07-20T00:34:57;4.72;;;1.92;;
38865;SDS011;62686;48.984;8.394;2023-07-20T00:37:41;2.97;;;2.00;;
38865;SDS011;62686;48.984;8.394;2023-07-20T00:43:24;3.00;;;2.00;;
38865;SDS011;62686;48.984;8.394;2023-07-20T00:46:08;3.78;;;2.08;;
38865;SDS011;62686;48.984;8.394;2023-07-20T00:48:37;3.38;;;2.00;;
38865;SDS011;62686;48.984;8.394;2023-07-20T01:01:19;3.72;;;2.10;;
38865;SDS011;62686;48.984;8.394;2023-07-20T01:04:00;4.03;;;2.13;;
38865;SDS011;62686;48.984;8.394;2023-07-20T01:06:41;2.85;;;2.17;;
38865;SDS011;62686;48.984;8.394;2023-07-20T01:10:22;3.80;;;1.85;;
38865;SDS011;62686;48.984;8.394;2023-07-20T01:13:49;3.15;;;2.20;;
38865;SDS011;62686;48.984;8.394;2023-07-20T01:16:24;2.83;;;2.22;;
38865;SDS011;62686;48.984;8.394;2023-07-20T01:19:20;6.97;;;2.10;;
38865;SDS011;62686;48.984;8.394;2023-07-20T01:26:21;3.38;;;2.20;;
38865;SDS011;62686;48.984;8.394;2023-07-20T01:33:14;6.15;;;2.30;;
38865;SDS011;62686;48.984;8.394;2023-07-20T01:35:57;6.25;;;2.30;;
38865;SDS011;62686;48.984;8.394;2023-07-20T01:41:26;3.45;;;2.25;;
38865;SDS011;62686;48.984;8.394;2023-07-20T01:46:55;3.60;;;2.40;;
38865;SDS011;62686;48.984;8.394;2023-07-20T01:49:31;3.30;;;2.40;;
38865;SDS011;62686;48.984;8.394;2023-07-20T01:52:02;3.35;;;2.40;;
38865;SDS011;62686;48.984;8.394;2023-07-20T01:54:37;6.05;;;2.78;;
38865;SDS011;62686;48.984;8.394;2023-07-20T02:11:07;2.97;;;2.03;;
38865;SDS011;62686;48.984;8.394;2023-07-20T02:13:59;4.75;;;2.58;;
38865;SDS011;62686;48.984;8.394;2023-07-20T02:16:28;4.40;;;2.25;;
38865;SDS011;62686;48.984;8.394;2023-07-20T02:19:02;5.03;;;2.80;;
38865;SDS011;62686;48.984;8.394;2023-07-20T02:22:14;3.75;;;2.85;;
38865;SDS011;62686;48.984;8.394;2023-07-20T02:25:16;5.00;;;2.88;;
38865;SDS011;62686;48.984;8.394;2023-07-20T02:27:55;4.68;;;2.40;;
38865;SDS011;62686;48.984;8.394;2023-07-20T02:30:53;4.90;;;2.45;;
38865;SDS011;62686;48.984;8.394;2023-07-20T02:36:31;4.05;;;2.40;;
38865;SDS011;62686;48.984;8.394;2023-07-20T02:39:05;3.22;;;2.70;;
38865;SDS011;62686;48.984;8.394;2023-07-20T02:41:47;3.28;;;2.50;;
38865;SDS011;62686;48.984;8.394;2023-07-20T02:44:30;3.97;;;2.30;;
38865;SDS011;62686;48.984;8.394;2023-07-20T02:47:13;3.60;;;2.53;;
38865;SDS011;62686;48.984;8.394;2023-07-20T02:49:51;2.70;;;2.45;;
38865;SDS011;62686;48.984;8.394;2023-07-20T02:52:38;5.82;;;3.08;;
38865;SDS011;62686;48.984;8.394;2023-07-20T03:02:46;6.15;;;2.97;;
38865;SDS011;62686;48.984;8.394;2023-07-20T03:05:21;5.25;;;2.60;;
38865;SDS011;62686;48.984;8.394;2023-07-20T03:07:57;4.63;;;3.13;;
38865;SDS011;62686;48.984;8.394;2023-07-20T03:10:40;5.28;;;3.00;;
38865;SDS011;62686;48.984;8.394;2023-07-20T03:13:50;4.38;;;3.08;;
38865;SDS011;62686;48.984;8.394;2023-07-20T03:16:19;5.90;;;2.80;;
38865;SDS011;62686;48.984;8.394;2023-07-20T03:18:58;6.25;;;2.95;;
38865;SDS011;62686;48.984;8.394;2023-07-20T03:25:03;4.18;;;2.70;;
38865;SDS011;62686;48.984;8.394;2023-07-20T03:27:43;4.38;;;2.95;;
38865;SDS011;62686;48.984;8.394;2023-07-20T03:30:11;4.18;;;2.63;;
38865;SDS011;62686;48.984;8.394;2023-07-20T03:32:55;6.47;;;2.47;;
38865;SDS011;62686;48.984;8.394;2023-07-20T03:35:25;4.55;;;2.80;;
38865;SDS011;62686;48.984;8.394;2023-07-20T03:37:59;3.63;;;2.53;;
38865;SDS011;62686;48.984;8.394;2023-07-20T03:40:33;4.82;;;2.75;;
38865;SDS011;62686;48.984;8.394;2023-07-20T03:43:20;6.03;;;2.78;;
38865;SDS011;62686;48.984;8.394;2023-07-20T03:49:24;3.53;;;2.42;;
38865;SDS011;62686;48.984;8.394;2023-07-20T03:51:53;4.18;;;2.72;;
38865;SDS011;62686;48.984;8.394;2023-07-20T03:55:14;3.03;;;2.38;;
38865;SDS011;62686;48.984;8.394;2023-07-20T03:57:55;3.35;;;2.50;;
38865;SDS011;62686;48.984;8.394;2023-07-20T04:03:40;3.72;;;2.50;;
38865;SDS011;62686;48.984;8.394;2023-07-20T04:06:12;5.97;;;2.58;;
38865;SDS011;62686;48.984;8.394;2023-07-20T04:09:07;5.07;;;2.20;;
38865;SDS011;62686;48.984;8.394;2023-07-20T04:11:38;5.20;;;2.40;;
38865;SDS011;62686;48.984;8.394;2023-07-20T04:14:20;7.43;;;2.85;;
38865;SDS011;62686;48.984;8.394;2023-07-20T04:16:49;5.18;;;2.47;;
38865;SDS011;62686;48.984;8.394;2023-07-20T04:26:45;4.75;;;2.97;;
38865;SDS011;62686;48.984;8.394;2023-07-20T04:29:16;3.75;;;2.33;;
38865;SDS011;62686;48.984;8.394;2023-07-20T04:32:37;7.93;;;2.58;;
38865;SDS011;62686;48.984;8.394;2023-07-20T04:35:45;3.90;;;2.40;;
38865;SDS011;62686;48.984;8.394;2023-07-20T04:38:43;5.13;;;2.47;;
38865;SDS011;62686;48.984;8.394;2023-07-20T04:50:46;5.70;;;2.38;;
38865;SDS011;62686;48.984;8.394;2023-07-20T04:53:14;6.20;;;2.38;;
38865;SDS011;62686;48.984;8.394;2023-07-20T04:55:47;5.85;;;2.40;;
38865;SDS011;62686;48.984;8.394;2023-07-20T04:58:19;2.47;;;2.08;;
38865;SDS011;62686;48.984;8.394;2023-07-20T05:00:48;3.65;;;2.65;;
38865;SDS011;62686;48.984;8.394;2023-07-20T05:03:17;3.90;;;2.58;;
38865;SDS011;62686;48.984;8.394;2023-07-20T05:05:46;2.97;;;2.47;;
38865;SDS011;62686;48.984;8.394;2023-07-20T05:08:15;6.22;;;2.70;;
38865;SDS011;62686;48.984;8.394;2023-07-20T05:10:43;3.05;;;2.15;;
38865;SDS011;62686;48.984;8.394;2023-07-20T05:13:11;4.43;;;2.30;;
38865;SDS011;62686;48.984;8.394;2023-07-20T05:15:41;3.25;;;2.25;;
38865;SDS011;62686;48.984;8.394;2023-07-20T05:18:09;2.40;;;1.90;;
38865;SDS011;62686;48.984;8.394;2023-07-20T05:20:38;2.45;;;2.05;;
38865;SDS011;62686;48.984;8.394;2023-07-20T05:23:07;3.05;;;1.80;;
38865;SDS011;62686;48.984;8.394;2023-07-20T05:25:35;4.63;;;2.15;;
38865;SDS011;62686;48.984;8.394;2023-07-20T05:28:04;3.97;;;2.28;;
38865;SDS011;62686;48.984;8.394;2023-07-20T05:30:32;7.63;;;2.30;;
38865;SDS011;62686;48.984;8.394;2023-07-20T05:33:02;2.67;;;1.98;;
38865;SDS011;62686;48.984;8.394;2023-07-20T05:35:30;4.03;;;2.00;;
38865;SDS011;62686;48.984;8.394;2023-07-20T05:37:58;3.25;;;2.08;;
38865;SDS011;62686;48.984;8.394;2023-07-20T05:40:26;3.58;;;1.70;;
38865;SDS011;62686;48.984;8.394;2023-07-20T05:42:55;3.50;;;1.80;;
38865;SDS011;62686;48.984;8.394;2023-07-20T05:45:23;2.45;;;1.85;;
38865;SDS011;62686;48.984;8.394;2023-07-20T05:47:51;3.45;;;1.95;;
38865;SDS011;62686;48.984;8.394;2023-07-20T05:50:21;4.68;;;2.08;;
38865;SDS011;62686;48.984;8.394;2023-07-20T05:52:52;3.97;;;2.20;;
38865;SDS011;62686;48.984;8.394;2023-07-20T05:55:20;2.95;;;2.30;;
38865;SDS011;62686;48.984;8.394;2023-07-20T05:57:48;4.72;;;2.42;;
38865;SDS011;62686;48.984;8.394;2023-07-20T06:00:17;7.20;;;2.08;;
38865;SDS011;62686;48.984;8.394;2023-07-20T06:02:52;5.78;;;2.05;;
38865;SDS011;62686;48.984;8.394;2023-07-20T06:05:23;3.40;;;1.88;;
38865;SDS011;62686;48.984;8.394;2023-07-20T06:07:54;3.22;;;2.03;;
38865;SDS011;62686;48.984;8.394;2023-07-20T06:10:23;2.83;;;1.70;;
38865;SDS011;62686;48.984;8.394;2023-07-20T06:12:53;5.43;;;2.38;;
38865;SDS011;62686;48.984;8.394;2023-07-20T06:15:25;6.63;;;1.90;;
38865;SDS011;62686;48.984;8.394;2023-07-20T06:17:54;5.13;;;2.17;;
38865;SDS011;62686;48.984;8.394;2023-07-20T06:20:26;3.40;;;2.05;;
38865;SDS011;62686;48.984;8.394;2023-07-20T06:22:54;4.15;;;1.80;;
38865;SDS011;62686;48.984;8.394;2023-07-20T06:25:22;2.85;;;1.73;;
38865;SDS011;62686;48.984;8.394;2023-07-20T06:27:50;7.05;;;2.17;;
38865;SDS011;62686;48.984;8.394;2023-07-20T06:30:20;6.05;;;2.22;;
38865;SDS011;62686;48.984;8.394;2023-07-20T06:32:48;6.30;;;1.90;;
38865;SDS011;62686;48.984;8.394;2023-07-20T06:35:16;8.00;;;2.03;;
38865;SDS011;62686;48.984;8.394;2023-07-20T06:37:47;3.45;;;1.77;;
38865;SDS011;62686;48.984;8.394;2023-07-20T06:40:15;3.47;;;2.15;;
38865;SDS011;62686;48.984;8.394;2023-07-20T06:42:46;4.65;;;2.22;;
38865;SDS011;62686;48.984;8.394;2023-07-20T06:45:18;8.93;;;2.25;;
38865;SDS011;62686;48.984;8.394;2023-07-20T06:47:46;2.67;;;2.15;;
38865;SDS011;62686;48.984;8.394;2023-07-20T06:50:14;3.45;;;1.95;;
38865;SDS011;62686;48.984;8.394;2023-07-20T06:52:43;4.95;;;2.00;;
38865;SDS011;62686;48.984;8.394;2023-07-20T06:55:14;2.83;;;1.83;;
38865;SDS011;62686;48.984;8.394;2023-07-20T06:57:47;5.35;;;2.13;;
38865;SDS011;62686;48.984;8.394;2023-07-20T07:00:16;3.20;;;1.70;;
38865;SDS011;62686;48.984;8.394;2023-07-20T07:02:44;2.85;;;1.92;;
38865;SDS011;62686;48.984;8.394;2023-07-20T07:05:13;6.55;;;2.00;;
38865;SDS011;62686;48.984;8.394;2023-07-20T07:07:45;2.85;;;1.95;;
38865;SDS011;62686;48.984;8.394;2023-07-20T07:10:15;5.70;;;2.10;;
38865;SDS011;62686;48.984;8.394;2023-07-20T07:12:44;3.58;;;1.60;;
38865;SDS011;62686;48.984;8.394;2023-07-20T07:15:12;5.55;;;2.00;;
38865;SDS011;62686;48.984;8.394;2023-07-20T07:17:41;4.50;;;1.88;;
38865;SDS011;62686;48.984;8.394;2023-07-20T07:20:10;2.63;;;1.90;;
38865;SDS011;62686;48.984;8.394;2023-07-20T07:22:45;6.43;;;1.90;;
38865;SDS011;62686;48.984;8.394;2023-07-20T07:25:16;5.40;;;1.92;;
38865;SDS011;62686;48.984;8.394;2023-07-20T07:27:45;3.63;;;1.80;;
38865;SDS011;62686;48.984;8.394;2023-07-20T07:30:13;4.97;;;1.80;;
38865;SDS011;62686;48.984;8.394;2023-07-20T07:32:42;6.05;;;1.60;;
38865;SDS011;62686;48.984;8.394;2023-07-20T07:35:10;5.95;;;1.42;;
38865;SDS011;62686;48.984;8.394;2023-07-20T07:37:39;2.17;;;1.60;;
38865;SDS011;62686;48.984;8.394;2023-07-20T07:40:10;2.47;;;1.50;;
38865;SDS011;62686;48.984;8.394;2023-07-20T07:42:40;4.55;;;1.83;;
38865;SDS011;62686;48.984;8.394;2023-07-20T07:45:08;6.65;;;1.95;;
38865;SDS011;62686;48.984;8.394;2023-07-20T07:47:37;2.40;;;1.48;;
38865;SDS011;62686;48.984;8.394;2023-07-20T07:50:05;2.53;;;1.38;;
38865;SDS011;62686;48.984;8.394;2023-07-20T07:52:34;3.15;;;1.70;;
38865;SDS011;62686;48.984;8.394;2023-07-20T07:55:03;3.05;;;1.60;;
38865;SDS011;62686;48.984;8.394;2023-07-20T07:57:32;3.65;;;1.60;;
38865;SDS011;62686;48.984;8.394;2023-07-20T08:00:01;2.47;;;1.63;;
38865;SDS011;62686;48.984;8.394;2023-07-20T08:02:30;3.85;;;1.90;;
38865;SDS011;62686;48.984;8.394;2023-07-20T08:04:59;5.20;;;2.03;;
38865;SDS011;62686;48.984;8.394;2023-07-20T08:07:28;4.18;;;1.50;;
38865;SDS011;62686;48.984;8.394;2023-07-20T08:09:56;4.07;;;1.50;;
38865;SDS011;62686;48.984;8.394;2023-07-20T08:12:25;4.05;;;1.50;;
38865;SDS011;62686;48.984;8.394;2023-07-20T08:14:53;3.10;;;1.48;;
38865;SDS011;62686;48.984;8.394;2023-07-20T08:17:24;2.65;;;1.60;;
38865;SDS011;62686;48.984;8.394;2023-07-20T08:19:53;4.40;;;1.60;;
38865;SDS011;62686;48.984;8.394;2023-07-20T08:22:21;4.60;;;1.50;;
38865;SDS011;62686;48.984;8.394;2023-07-20T08:24:50;3.50;;;1.88;;
38865;SDS011;62686;48.984;8.394;2023-07-20T08:27:18;1.90;;;1.30;;
38865;SDS011;62686;48.984;8.394;2023-07-20T08:29:46;6.93;;;1.60;;
38865;SDS011;62686;48.984;8.394;2023-07-20T08:32:14;2.20;;;1.55;;
38865;SDS011;62686;48.984;8.394;2023-07-20T08:34:44;2.63;;;1.35;;
38865;SDS011;62686;48.984;8.394;2023-07-20T08:37:12;3.63;;;1.63;;
38865;SDS011;62686;48.984;8.394;2023-07-20T08:39:40;4.72;;;1.42;;
38865;SDS011;62686;48.984;8.394;2023-07-20T08:42:09;3.83;;;1.50;;
38865;SDS011;62686;48.984;8.394;2023-07-20T08:44:38;2.72;;;1.58;;
38865;SDS011;62686;48.984;8.394;2023-07-20T08:47:09;3.50;;;1.63;;
38865;SDS011;62686;48.984;8.394;2023-07-20T08:49:39;1.65;;;1.40;;
38865;SDS011;62686;48.984;8.394;2023-07-20T08:52:10;3.75;;;1.55;;
38865;SDS011;62686;48.984;8.394;2023-07-20T08:54:39;3.17;;;1.35;;
38865;SDS011;62686;48.984;8.394;2023-07-20T08:57:08;7.88;;;1.60;;
38865;SDS011;62686;48.984;8.394;2023-07-20T08:59:40;4.40;;;1.58;;
38865;SDS011;62686;48.984;8.394;2023-07-20T09:02:10;4.68;;;1.90;;
38865;SDS011;62686;48.984;8.394;2023-07-20T09:04:45;3.45;;;1.70;;
38865;SDS011;62686;48.984;8.394;2023-07-20T09:07:14;2.42;;;1.55;;
38865;SDS011;62686;48.984;8.394;2023-07-20T09:09:45;2.65;;;1.42;;
38865;SDS011;62686;48.984;8.394;2023-07-20T09:12:13;4.35;;;1.30;;
38865;SDS011;62686;48.984;8.394;2023-07-20T09:14:42;7.85;;;1.67;;
38865;SDS011;62686;48.984;8.394;2023-07-20T09:17:14;4.95;;;1.40;;
38865;SDS011;62686;48.984;8.394;2023-07-20T09:19:46;2.13;;;1.50;;
38865;SDS011;62686;48.984;8.394;2023-07-20T09:22:16;2.92;;;1.45;;
38865;SDS011;62686;48.984;8.394;2023-07-20T09:24:44;4.88;;;1.50;;
38865;SDS011;62686;48.984;8.394;2023-07-20T09:27:13;1.70;;;1.00;;
38865;SDS011;62686;48.984;8.394;2023-07-20T09:29:47;1.30;;;1.10;;
38865;SDS011;62686;48.984;8.394;2023-07-20T09:32:19;2.15;;;1.05;;
38865;SDS011;62686;48.984;8.394;2023-07-20T09:34:50;2.47;;;1.00;;
38865;SDS011;62686;48.984;8.394;2023-07-20T09:37:23;2.17;;;1.30;;
38865;SDS011;62686;48.984;8.394;2023-07-20T09:39:53;1.63;;;1.38;;
38865;SDS011;62686;48.984;8.394;2023-07-20T09:42:24;2.55;;;1.00;;
38865;SDS011;62686;48.984;8.394;2023-07-20T09:44:56;2.33;;;1.25;;
38865;SDS011;62686;48.984;8.394;2023-07-20T09:47:24;1.70;;;1.20;;
38865;SDS011;62686;48.984;8.394;2023-07-20T09:49:57;1.70;;;1.35;;
38865;SDS011;62686;48.984;8.394;2023-07-20T09:52:31;3.20;;;1.15;;
38865;SDS011;62686;48.984;8.394;2023-07-20T09:55:03;1.38;;;1.23;;
38865;SDS011;62686;48.984;8.394;2023-07-20T09:57:32;1.52;;;1.17;;
38865;SDS011;62686;48.984;8.394;2023-07-20T10:00:03;1.73;;;1.10;;
38865;SDS011;62686;48.984;8.394;2023-07-20T10:02:41;1.10;;;1.00;;
38865;SDS011;62686;48.984;8.394;2023-07-20T10:05:11;2.85;;;1.10;;
38865;SDS011;62686;48.984;8.394;2023-07-20T10:07:44;2.28;;;1.20;;
38865;SDS011;62686;48.984;8.394;2023-07-20T10:10:40;1.70;;;1.05;;
38865;SDS011;62686;48.984;8.394;2023-07-20T10:13:14;2.42;;;1.25;;
38865;SDS011;62686;48.984;8.394;2023-07-20T10:15:53;1.98;;;1.35;;
38865;SDS011;62686;48.984;8.394;2023-07-20T10:18:29;1.30;;;0.90;;
38865;SDS011;62686;48.984;8.394;2023-07-20T10:21:04;3.53;;;1.20;;
38865;SDS011;62686;48.984;8.394;2023-07-20T10:23:41;1.77;;;0.93;;
38865;SDS011;62686;48.984;8.394;2023-07-20T10:26:24;2.15;;;1.10;;
38865;SDS011;62686;48.984;8.394;2023-07-20T10:29:00;5.28;;;1.20;;
38865;SDS011;62686;48.984;8.394;2023-07-20T10:31:32;1.50;;;1.25;;
38865;SDS011;62686;48.984;8.394;2023-07-20T10:34:03;1.88;;;1.35;;
38865;SDS011;62686;48.984;8.394;2023-07-20T10:36:32;1.75;;;1.23;;
38865;SDS011;62686;48.984;8.394;2023-07-20T10:39:15;3.20;;;1.38;;
38865;SDS011;62686;48.984;8.394;2023-07-20T10:41:50;2.50;;;1.30;;
38865;SDS011;62686;48.984;8.394;2023-07-20T10:44:27;1.88;;;1.20;;
38865;SDS011;62686;48.984;8.394;2023-07-20T10:46:58;2.33;;;1.05;;
38865;SDS011;62686;48.984;8.394;2023-07-20T10:49:28;1.95;;;1.20;;
38865;SDS011;62686;48.984;8.394;2023-07-20T10:51:57;2.75;;;1.40;;
38865;SDS011;62686;48.984;8.394;2023-07-20T10:54:34;1.60;;;1.20;;
38865;SDS011;62686;48.984;8.394;2023-07-20T11:00:10;4.97;;;1.23;;
38865;SDS011;62686;48.984;8.394;2023-07-20T11:02:44;4.72;;;1.60;;
38865;SDS011;62686;48.984;8.394;2023-07-20T11:05:31;1.40;;;1.20;;
38865;SDS011;62686;48.984;8.394;2023-07-20T11:08:03;3.25;;;1.45;;
38865;SDS011;62686;48.984;8.394;2023-07-20T11:10:34;3.10;;;1.45;;
38865;SDS011;62686;48.984;8.394;2023-07-20T11:13:18;1.60;;;1.20;;
38865;SDS011;62686;48.984;8.394;2023-07-20T11:16:01;2.72;;;1.30;;
38865;SDS011;62686;48.984;8.394;2023-07-20T11:18:34;3.03;;;1.30;;
38865;SDS011;62686;48.984;8.394;2023-07-20T11:21:07;1.23;;;1.02;;
38865;SDS011;62686;48.984;8.394;2023-07-20T11:23:37;2.42;;;1.15;;
38865;SDS011;62686;48.984;8.394;2023-07-20T11:26:08;2.63;;;1.33;;
38865;SDS011;62686;48.984;8.394;2023-07-20T11:28:38;1.38;;;1.05;;
38865;SDS011;62686;48.984;8.394;2023-07-20T11:31:07;1.65;;;1.00;;
38865;SDS011;62686;48.984;8.394;2023-07-20T11:33:35;1.70;;;1.00;;
38865;SDS011;62686;48.984;8.394;2023-07-20T11:36:03;2.90;;;1.10;;
38865;SDS011;62686;48.984;8.394;2023-07-20T11:38:53;1.70;;;1.08;;
38865;SDS011;62686;48.984;8.394;2023-07-20T11:41:23;1.50;;;0.98;;
38865;SDS011;62686;48.984;8.394;2023-07-20T11:43:53;1.90;;;1.00;;
38865;SDS011;62686;48.984;8.394;2023-07-20T11:46:22;2.38;;;1.25;;
38865;SDS011;62686;48.984;8.394;2023-07-20T11:48:55;4.13;;;1.10;;
38865;SDS011;62686;48.984;8.394;2023-07-20T11:51:25;1.42;;;0.90;;
38865;SDS011;62686;48.984;8.394;2023-07-20T11:53:55;2.35;;;1.23;;
38865;SDS011;62686;48.984;8.394;2023-07-20T11:56:25;2.28;;;1.00;;
38865;SDS011;62686;48.984;8.394;2023-07-20T11:58:54;1.73;;;0.82;;
38865;SDS011;62686;48.984;8.394;2023-07-20T12:01:23;1.23;;;1.00;;
38865;SDS011;62686;48.984;8.394;2023-07-20T12:03:52;1.42;;;0.82;;
38865;SDS011;62686;48.984;8.394;2023-07-20T12:06:22;1.77;;;1.00;;
38865;SDS011;62686;48.984;8.394;2023-07-20T12:08:54;2.20;;;1.20;;
38865;SDS011;62686;48.984;8.394;2023-07-20T12:11:32;1.60;;;0.98;;
38865;SDS011;62686;48.984;8.394;2023-07-20T12:14:01;1.20;;;0.80;;
38865;SDS011;62686;48.984;8.394;2023-07-20T12:16:37;0.80;;;0.80;;
38865;SDS011;62686;48.984;8.394;2023-07-20T12:19:07;0.90;;;0.80;;
38865;SDS011;62686;48.984;8.394;2023-07-20T12:21:37;1.35;;;0.90;;
38865;SDS011;62686;48.984;8.394;2023-07-20T12:24:06;1.20;;;1.10;;
38865;SDS011;62686;48.984;8.394;2023-07-20T12:26:37;1.08;;;0.88;;
38865;SDS011;62686;48.984;8.394;2023-07-20T12:29:06;1.75;;;1.10;;
38865;SDS011;62686;48.984;8.394;2023-07-20T12:31:36;1.30;;;0.82;;
38865;SDS011;62686;48.984;8.394;2023-07-20T12:34:04;1.40;;;1.13;;
38865;SDS011;62686;48.984;8.394;2023-07-20T12:36:34;1.33;;;0.90;;
38865;SDS011;62686;48.984;8.394;2023-07-20T12:39:02;0.80;;;0.70;;
38865;SDS011;62686;48.984;8.394;2023-07-20T12:41:31;2.08;;;1.15;;
38865;SDS011;62686;48.984;8.394;2023-07-20T12:44:01;1.55;;;1.00;;
38865;SDS011;62686;48.984;8.394;2023-07-20T12:46:29;1.58;;;1.10;;
38865;SDS011;62686;48.984;8.394;2023-07-20T12:49:01;4.20;;;0.90;;
38865;SDS011;62686;48.984;8.394;2023-07-20T12:51:29;2.42;;;0.90;;
38865;SDS011;62686;48.984;8.394;2023-07-20T12:53:58;2.65;;;1.00;;
38865;SDS011;62686;48.984;8.394;2023-07-20T12:56:26;2.38;;;1.30;;
38865;SDS011;62686;48.984;8.394;2023-07-20T12:58:57;1.73;;;1.00;;
38865;SDS011;62686;48.984;8.394;2023-07-20T13:01:30;1.00;;;0.90;;
38865;SDS011;62686;48.984;8.394;2023-07-20T13:03:59;1.95;;;1.02;;
38865;SDS011;62686;48.984;8.394;2023-07-20T13:06:30;3.08;;;0.93;;
38865;SDS011;62686;48.984;8.394;2023-07-20T13:08:59;1.10;;;0.80;;
38865;SDS011;62686;48.984;8.394;2023-07-20T13:11:29;1.13;;;0.88;;
38865;SDS011;62686;48.984;8.394;2023-07-20T13:13:59;1.00;;;0.73;;
38865;SDS011;62686;48.984;8.394;2023-07-20T13:16:28;1.83;;;1.08;;
38865;SDS011;62686;48.984;8.394;2023-07-20T13:19:00;1.15;;;0.75;;
38865;SDS011;62686;48.984;8.394;2023-07-20T13:21:30;1.63;;;1.00;;
38865;SDS011;62686;48.984;8.394;2023-07-20T13:24:01;5.13;;;1.00;;
38865;SDS011;62686;48.984;8.394;2023-07-20T13:26:30;1.25;;;0.93;;
38865;SDS011;62686;48.984;8.394;2023-07-20T13:28:58;3.20;;;0.80;;
38865;SDS011;62686;48.984;8.394;2023-07-20T13:31:27;0.95;;;0.80;;
38865;SDS011;62686;48.984;8.394;2023-07-20T13:33:55;1.77;;;1.02;;
38865;SDS011;62686;48.984;8.394;2023-07-20T13:36:26;0.95;;;0.85;;
38865;SDS011;62686;48.984;8.394;2023-07-20T13:38:55;1.45;;;0.80;;
38865;SDS011;62686;48.984;8.394;2023-07-20T13:41:23;3.47;;;1.00;;
38865;SDS011;62686;48.984;8.394;2023-07-20T13:43:52;1.02;;;0.75;;
38865;SDS011;62686;48.984;8.394;2023-07-20T13:46:23;2.33;;;0.95;;
38865;SDS011;62686;48.984;8.394;2023-07-20T13:48:54;1.10;;;1.00;;
38865;SDS011;62686;48.984;8.394;2023-07-20T13:51:23;1.17;;;0.90;;
38865;SDS011;62686;48.984;8.394;2023-07-20T13:53:54;0.80;;;0.80;;
38865;SDS011;62686;48.984;8.394;2023-07-20T13:56:23;1.40;;;0.90;;
38865;SDS011;62686;48.984;8.394;2023-07-20T13:58:51;0.82;;;0.73;;
38865;SDS011;62686;48.984;8.394;2023-07-20T14:01:21;1.02;;;0.93;;
38865;SDS011;62686;48.984;8.394;2023-07-20T14:03:54;1.30;;;0.95;;
38865;SDS011;62686;48.984;8.394;2023-07-20T14:06:24;0.85;;;0.70;;
38865;SDS011;62686;48.984;8.394;2023-07-20T14:11:41;0.82;;;0.80;;
38865;SDS011;62686;48.984;8.394;2023-07-20T14:14:13;3.40;;;0.90;;
38865;SDS011;62686;48.984;8.394;2023-07-20T14:16:41;1.52;;;0.80;;
38865;SDS011;62686;48.984;8.394;2023-07-20T14:19:09;1.92;;;1.10;;
38865;SDS011;62686;48.984;8.394;2023-07-20T14:21:38;1.13;;;0.77;;
38865;SDS011;62686;48.984;8.394;2023-07-20T14:24:07;1.30;;;1.00;;
38865;SDS011;62686;48.984;8.394;2023-07-20T14:26:40;2.05;;;0.98;;
38865;SDS011;62686;48.984;8.394;2023-07-20T14:29:09;1.08;;;0.88;;
38865;SDS011;62686;48.984;8.394;2023-07-20T14:31:37;2.25;;;1.10;;
38865;SDS011;62686;48.984;8.394;2023-07-20T14:34:05;2.00;;;0.75;;
38865;SDS011;62686;48.984;8.394;2023-07-20T14:36:33;1.38;;;1.05;;
38865;SDS011;62686;48.984;8.394;2023-07-20T14:39:03;1.25;;;0.90;;
38865;SDS011;62686;48.984;8.394;2023-07-20T14:41:32;0.93;;;0.80;;
38865;SDS011;62686;48.984;8.394;2023-07-20T14:44:01;1.35;;;0.90;;
38865;SDS011;62686;48.984;8.394;2023-07-20T14:46:31;1.17;;;0.90;;
38865;SDS011;62686;48.984;8.394;2023-07-20T14:49:01;0.95;;;0.90;;
38865;SDS011;62686;48.984;8.394;2023-07-20T14:51:29;1.73;;;1.00;;
38865;SDS011;62686;48.984;8.394;2023-07-20T14:54:02;0.95;;;0.70;;
38865;SDS011;62686;48.984;8.394;2023-07-20T14:56:33;1.10;;;0.90;;
38865;SDS011;62686;48.984;8.394;2023-07-20T14:59:06;1.00;;;0.90;;
38865;SDS011;62686;48.984;8.394;2023-07-20T15:01:36;2.75;;;1.00;;
38865;SDS011;62686;48.984;8.394;2023-07-20T15:04:08;1.35;;;0.90;;
38865;SDS011;62686;48.984;8.394;2023-07-20T15:06:37;2.35;;;0.90;;
38865;SDS011;62686;48.984;8.394;2023-07-20T15:09:06;1.23;;;0.90;;
38865;SDS011;62686;48.984;8.394;2023-07-20T15:11:36;1.33;;;1.00;;
38865;SDS011;62686;48.984;8.394;2023-07-20T15:14:06;1.58;;;1.30;;
38865;SDS011;62686;48.984;8.394;2023-07-20T15:16:34;1.52;;;0.90;;
38865;SDS011;62686;48.984;8.394;2023-07-20T15:19:05;1.85;;;0.88;;
38865;SDS011;62686;48.984;8.394;2023-07-20T15:21:40;1.50;;;1.00;;
38865;SDS011;62686;48.984;8.394;2023-07-20T15:24:08;0.80;;;0.80;;
38865;SDS011;62686;48.984;8.394;2023-07-20T15:26:36;2.08;;;1.00;;
38865;SDS011;62686;48.984;8.394;2023-07-20T15:29:07;1.23;;;0.85;;
38865;SDS011;62686;48.984;8.394;2023-07-20T15:31:57;1.08;;;0.98;;
38865;SDS011;62686;48.984;8.394;2023-07-20T15:34:26;1.10;;;0.88;;
38865;SDS011;62686;48.984;8.394;2023-07-20T15:36:54;1.20;;;1.10;;
38865;SDS011;62686;48.984;8.394;2023-07-20T15:39:22;1.38;;;1.00;;
38865;SDS011;62686;48.984;8.394;2023-07-20T15:41:51;1.13;;;0.93;;
38865;SDS011;62686;48.984;8.394;2023-07-20T15:44:20;3.15;;;1.10;;
38865;SDS011;62686;48.984;8.394;2023-07-20T15:46:49;1.75;;;1.20;;
38865;SDS011;62686;48.984;8.394;2023-07-20T15:49:18;1.33;;;0.90;;
38865;SDS011;62686;48.984;8.394;2023-07-20T15:51:46;2.05;;;1.20;;
38865;SDS011;62686;48.984;8.394;2023-07-20T15:54:15;1.55;;;1.15;;
38865;SDS011;62686;48.984;8.394;2023-07-20T15:56:43;2.78;;;1.25;;
38865;SDS011;62686;48.984;8.394;2023-07-20T15:59:13;1.02;;;0.90;;
38865;SDS011;62686;48.984;8.394;2023-07-20T16:01:43;1.17;;;1.00;;
38865;SDS011;62686;48.984;8.394;2023-07-20T16:04:12;1.60;;;1.10;;
38865;SDS011;62686;48.984;8.394;2023-07-20T16:06:41;1.48;;;1.00;;
38865;SDS011;62686;48.984;8.394;2023-07-20T16:09:10;2.20;;;1.10;;
38865;SDS011;62686;48.984;8.394;2023-07-20T16:11:38;1.17;;;1.00;;
38865;SDS011;62686;48.984;8.394;2023-07-20T16:14:06;2.17;;;1.20;;
38865;SDS011;62686;48.984;8.394;2023-07-20T16:16:35;1.60;;;1.00;;
38865;SDS011;62686;48.984;8.394;2023-07-20T16:19:05;4.18;;;1.23;;
38865;SDS011;62686;48.984;8.394;2023-07-20T16:21:34;1.73;;;1.05;;
38865;SDS011;62686;48.984;8.394;2023-07-20T16:24:02;2.17;;;1.00;;
38865;SDS011;62686;48.984;8.394;2023-07-20T16:26:31;1.45;;;1.00;;
38865;SDS011;62686;48.984;8.394;2023-07-20T16:28:59;1.15;;;0.82;;
38865;SDS011;62686;48.984;8.394;2023-07-20T16:31:31;1.20;;;1.10;;
38865;SDS011;62686;48.984;8.394;2023-07-20T16:33:59;1.38;;;1.25;;
38865;SDS011;62686;48.984;8.394;2023-07-20T16:36:31;1.27;;;0.93;;
38865;SDS011;62686;48.984;8.394;2023-07-20T16:39:19;3.00;;;0.93;;
38865;SDS011;62686;48.984;8.394;2023-07-20T16:41:50;1.20;;;1.10;;
38865;SDS011;62686;48.984;8.394;2023-07-20T16:44:21;2.63;;;1.05;;
38865;SDS011;62686;48.984;8.394;2023-07-20T16:46:50;1.13;;;1.02;;
38865;SDS011;62686;48.984;8.394;2023-07-20T16:49:21;1.27;;;0.93;;
38865;SDS011;62686;48.984;8.394;2023-07-20T16:51:50;2.60;;;1.23;;
38865;SDS011;62686;48.984;8.394;2023-07-20T16:54:19;2.13;;;1.10;;
38865;SDS011;62686;48.984;8.394;2023-07-20T16:56:47;1.77;;;1.13;;
38865;SDS011;62686;48.984;8.394;2023-07-20T16:59:15;1.40;;;1.00;;